sensor_id;sensor_type;location;lat;lon;timestamp;pressure;altitude;pressure_sealevel;temperature;humidity
69035;BME280;56091;55.756;37.412;2023-04-27T00:00:42;98278.06;;;10.28;65.74
69035;BME280;56091;55.756;37.412;2023-04-27T00:05:43;98276.50;;;10.22;66.59
69035;BME280;56091;55.756;37.412;2023-04-27T00:10:44;98279.97;;;10.22;67.02
69035;BME280;56091;55.756;37.412;2023-04-27T00:15:44;98280.31;;;10.15;67.91
69035;BME280;56091;55.756;37.412;2023-04-27T00:20:48;98270.13;;;9.92;68.76
69035;BME280;56091;55.756;37.412;2023-04-27T00:25:49;98280.91;;;9.92;69.69
69035;BME280;56091;55.756;37.412;2023-04-27T00:30:50;98285.81;;;9.85;69.77
69035;BME280;56091;55.756;37.412;2023-04-27T00:35:54;98282.84;;;9.81;69.87
69035;BME280;56091;55.756;37.412;2023-04-27T00:41:02;98283.91;;;9.80;68.97
69035;BME280;56091;55.756;37.412;2023-04-27T00:46:04;98282.28;;;9.84;67.69
69035;BME280;56091;55.756;37.412;2023-04-27T00:51:05;98281.22;;;9.90;67.06
69035;BME280;56091;55.756;37.412;2023-04-27T00:56:07;98280.63;;;10.04;66.27
69035;BME280;56091;55.756;37.412;2023-04-27T01:01:08;98282.19;;;10.15;65.95
69035;BME280;56091;55.756;37.412;2023-04-27T01:06:11;98282.16;;;10.20;65.55
69035;BME280;56091;55.756;37.412;2023-04-27T01:11:11;98292.38;;;10.28;64.44
69035;BME280;56091;55.756;37.412;2023-04-27T01:16:13;98292.59;;;10.42;63.44
69035;BME280;56091;55.756;37.412;2023-04-27T01:21:14;98285.53;;;10.51;63.72
69035;BME280;56091;55.756;37.412;2023-04-27T01:26:15;98280.97;;;10.47;63.94
69035;BME280;56091;55.756;37.412;2023-04-27T01:31:16;98286.09;;;10.43;64.72
69035;BME280;56091;55.756;37.412;2023-04-27T01:36:16;98281.59;;;10.33;65.34
69035;BME280;56091;55.756;37.412;2023-04-27T01:41:17;98279.44;;;10.25;64.70
69035;BME280;56091;55.756;37.412;2023-04-27T01:46:18;98283.22;;;10.24;65.08
69035;BME280;56091;55.756;37.412;2023-04-27T01:51:19;98285.94;;;10.19;65.83
69035;BME280;56091;55.756;37.412;2023-04-27T01:56:23;98285.41;;;10.17;66.08
69035;BME280;56091;55.756;37.412;2023-04-27T02:01:24;98259.59;;;10.06;65.50
69035;BME280;56091;55.756;37.412;2023-04-27T02:06:25;98282.69;;;10.22;68.10
69035;BME280;56091;55.756;37.412;2023-04-27T02:11:27;98288.66;;;10.14;68.62
69035;BME280;56091;55.756;37.412;2023-04-27T02:16:29;98300.00;;;10.06;69.80
69035;BME280;56091;55.756;37.412;2023-04-27T02:21:30;98307.31;;;9.95;70.44
69035;BME280;56091;55.756;37.412;2023-04-27T02:26:31;98313.50;;;9.95;71.29
69035;BME280;56091;55.756;37.412;2023-04-27T02:31:32;98307.56;;;9.93;70.58
69035;BME280;56091;55.756;37.412;2023-04-27T02:36:33;98317.81;;;10.02;70.49
69035;BME280;56091;55.756;37.412;2023-04-27T02:41:34;98324.47;;;10.14;70.11
69035;BME280;56091;55.756;37.412;2023-04-27T02:46:35;98334.97;;;10.26;69.36
69035;BME280;56091;55.756;37.412;2023-04-27T02:51:35;98324.97;;;10.37;67.49
69035;BME280;56091;55.756;37.412;2023-04-27T02:56:37;98334.34;;;10.50;68.57
69035;BME280;56091;55.756;37.412;2023-04-27T03:01:38;98340.78;;;10.59;67.94
69035;BME280;56091;55.756;37.412;2023-04-27T03:06:40;98334.25;;;10.70;66.81
69035;BME280;56091;55.756;37.412;2023-04-27T03:11:40;98342.78;;;10.83;66.21
69035;BME280;56091;55.756;37.412;2023-04-27T03:16:41;98350.03;;;10.92;67.24
69035;BME280;56091;55.756;37.412;2023-04-27T03:21:42;98357.81;;;10.99;67.59
69035;BME280;56091;55.756;37.412;2023-04-27T03:26:44;98360.44;;;11.09;67.19
69035;BME280;56091;55.756;37.412;2023-04-27T03:31:45;98357.69;;;11.20;66.33
69035;BME280;56091;55.756;37.412;2023-04-27T03:36:45;98363.56;;;11.27;64.08
69035;BME280;56091;55.756;37.412;2023-04-27T03:41:46;98363.34;;;11.52;63.78
69035;BME280;56091;55.756;37.412;2023-04-27T03:46:47;98362.28;;;11.83;63.13
69035;BME280;56091;55.756;37.412;2023-04-27T03:51:48;98371.28;;;12.02;62.01
69035;BME280;56091;55.756;37.412;2023-04-27T03:56:49;98383.81;;;12.22;60.96
69035;BME280;56091;55.756;37.412;2023-04-27T04:01:49;98382.38;;;12.30;61.08
69035;BME280;56091;55.756;37.412;2023-04-27T04:06:51;98382.34;;;12.54;59.55
69035;BME280;56091;55.756;37.412;2023-04-27T04:11:52;98374.34;;;12.68;58.72
69035;BME280;56091;55.756;37.412;2023-04-27T04:16:54;98396.78;;;12.68;59.15
69035;BME280;56091;55.756;37.412;2023-04-27T04:21:55;98390.91;;;12.61;59.64
69035;BME280;56091;55.756;37.412;2023-04-27T04:26:58;98392.75;;;12.66;60.03
69035;BME280;56091;55.756;37.412;2023-04-27T04:31:58;98404.28;;;12.77;59.49
69035;BME280;56091;55.756;37.412;2023-04-27T04:37:00;98409.81;;;12.85;59.44
69035;BME280;56091;55.756;37.412;2023-04-27T04:42:03;98412.03;;;13.02;58.88
69035;BME280;56091;55.756;37.412;2023-04-27T04:47:05;98405.09;;;13.15;58.37
69035;BME280;56091;55.756;37.412;2023-04-27T04:52:06;98409.28;;;13.26;57.40
69035;BME280;56091;55.756;37.412;2023-04-27T04:57:07;98414.25;;;13.38;56.76
69035;BME280;56091;55.756;37.412;2023-04-27T05:02:08;98398.75;;;13.44;56.22
69035;BME280;56091;55.756;37.412;2023-04-27T05:07:08;98416.78;;;13.67;55.37
69035;BME280;56091;55.756;37.412;2023-04-27T05:12:10;98416.84;;;13.81;54.54
69035;BME280;56091;55.756;37.412;2023-04-27T05:17:11;98419.28;;;13.97;54.36
69035;BME280;56091;55.756;37.412;2023-04-27T05:22:12;98425.53;;;14.11;53.42
69035;BME280;56091;55.756;37.412;2023-04-27T05:27:13;98413.38;;;14.22;52.49
69035;BME280;56091;55.756;37.412;2023-04-27T05:32:16;98425.56;;;14.39;52.02
69035;BME280;56091;55.756;37.412;2023-04-27T05:37:17;98430.19;;;14.52;52.16
69035;BME280;56091;55.756;37.412;2023-04-27T05:42:19;98425.22;;;14.59;51.51
69035;BME280;56091;55.756;37.412;2023-04-27T05:47:19;98431.41;;;14.74;51.84
69035;BME280;56091;55.756;37.412;2023-04-27T05:52:20;98422.59;;;14.82;51.71
69035;BME280;56091;55.756;37.412;2023-04-27T05:57:22;98426.69;;;14.93;51.43
69035;BME280;56091;55.756;37.412;2023-04-27T06:02:23;98410.78;;;15.00;51.60
69035;BME280;56091;55.756;37.412;2023-04-27T06:07:24;98432.06;;;15.21;51.26
69035;BME280;56091;55.756;37.412;2023-04-27T06:12:25;98418.16;;;15.22;50.48
69035;BME280;56091;55.756;37.412;2023-04-27T06:17:25;98433.13;;;15.34;49.18
69035;BME280;56091;55.756;37.412;2023-04-27T06:22:26;98432.03;;;15.57;48.28
69035;BME280;56091;55.756;37.412;2023-04-27T06:27:27;98439.44;;;15.79;47.51
69035;BME280;56091;55.756;37.412;2023-04-27T06:32:28;98443.38;;;15.96;47.29
69035;BME280;56091;55.756;37.412;2023-04-27T06:37:29;98443.75;;;16.03;46.47
69035;BME280;56091;55.756;37.412;2023-04-27T06:42:30;98430.31;;;16.07;46.24
69035;BME280;56091;55.756;37.412;2023-04-27T06:47:30;98450.00;;;16.35;45.60
69035;BME280;56091;55.756;37.412;2023-04-27T06:52:32;98447.50;;;16.47;44.83
69035;BME280;56091;55.756;37.412;2023-04-27T06:57:33;98445.13;;;16.54;44.57
69035;BME280;56091;55.756;37.412;2023-04-27T07:02:34;98436.50;;;16.61;43.89
69035;BME280;56091;55.756;37.412;2023-04-27T07:07:37;98447.63;;;16.82;42.65
69035;BME280;56091;55.756;37.412;2023-04-27T07:12:39;98448.47;;;16.91;42.33
69035;BME280;56091;55.756;37.412;2023-04-27T07:17:40;98446.91;;;17.08;39.94
69035;BME280;56091;55.756;37.412;2023-04-27T07:22:41;98444.03;;;17.22;40.23
69035;BME280;56091;55.756;37.412;2023-04-27T07:27:42;98446.63;;;17.27;40.50
69035;BME280;56091;55.756;37.412;2023-04-27T07:32:43;98443.41;;;17.42;40.24
69035;BME280;56091;55.756;37.412;2023-04-27T07:37:44;98453.19;;;17.52;39.13
69035;BME280;56091;55.756;37.412;2023-04-27T07:42:45;98451.75;;;17.54;39.24
69035;BME280;56091;55.756;37.412;2023-04-27T07:47:46;98464.56;;;17.71;39.50
69035;BME280;56091;55.756;37.412;2023-04-27T07:52:47;98461.22;;;17.74;39.80
69035;BME280;56091;55.756;37.412;2023-04-27T07:57:55;98454.63;;;17.75;38.83
69035;BME280;56091;55.756;37.412;2023-04-27T08:02:58;98465.72;;;17.88;39.86
69035;BME280;56091;55.756;37.412;2023-04-27T08:08:00;98472.28;;;17.78;40.25
69035;BME280;56091;55.756;37.412;2023-04-27T08:13:02;98462.81;;;17.75;40.28
69035;BME280;56091;55.756;37.412;2023-04-27T08:18:03;98454.16;;;17.82;40.83
69035;BME280;56091;55.756;37.412;2023-04-27T08:23:04;98452.88;;;17.97;40.28
69035;BME280;56091;55.756;37.412;2023-04-27T08:28:05;98468.22;;;18.37;41.04
69035;BME280;56091;55.756;37.412;2023-04-27T08:33:05;98463.47;;;18.54;40.99
69035;BME280;56091;55.756;37.412;2023-04-27T08:38:06;98444.00;;;18.65;40.96
69035;BME280;56091;55.756;37.412;2023-04-27T08:43:07;98452.19;;;19.03;40.94
69035;BME280;56091;55.756;37.412;2023-04-27T08:48:08;98464.66;;;19.13;40.32
69035;BME280;56091;55.756;37.412;2023-04-27T08:53:19;98455.22;;;19.31;39.38
69035;BME280;56091;55.756;37.412;2023-04-27T08:58:20;98466.22;;;19.23;40.15
69035;BME280;56091;55.756;37.412;2023-04-27T09:03:25;98463.16;;;18.95;40.95
69035;BME280;56091;55.756;37.412;2023-04-27T09:08:26;98464.56;;;19.01;40.43
69035;BME280;56091;55.756;37.412;2023-04-27T09:13:37;98473.75;;;18.96;39.37
69035;BME280;56091;55.756;37.412;2023-04-27T09:18:42;98468.34;;;18.79;39.09
69035;BME280;56091;55.756;37.412;2023-04-27T09:23:43;98469.22;;;18.70;39.29
69035;BME280;56091;55.756;37.412;2023-04-27T09:28:51;98471.41;;;18.86;38.88
69035;BME280;56091;55.756;37.412;2023-04-27T09:33:55;98465.13;;;19.15;38.78
69035;BME280;56091;55.756;37.412;2023-04-27T09:38:56;98461.50;;;19.74;37.58
69035;BME280;56091;55.756;37.412;2023-04-27T09:43:58;98457.69;;;20.33;36.64
69035;BME280;56091;55.756;37.412;2023-04-27T09:49:03;98458.28;;;20.39;36.23
69035;BME280;56091;55.756;37.412;2023-04-27T09:54:06;98458.72;;;19.95;36.37
69035;BME280;56091;55.756;37.412;2023-04-27T10:05:05;98475.44;;;19.39;38.29
69035;BME280;56091;55.756;37.412;2023-04-27T10:10:15;98465.13;;;19.99;37.45
69035;BME280;56091;55.756;37.412;2023-04-27T10:15:17;98454.91;;;20.08;37.38
69035;BME280;56091;55.756;37.412;2023-04-27T10:20:28;98458.00;;;19.86;36.83
69035;BME280;56091;55.756;37.412;2023-04-27T10:25:40;98467.16;;;20.23;37.12
69035;BME280;56091;55.756;37.412;2023-04-27T10:30:43;98480.88;;;20.02;36.27
69035;BME280;56091;55.756;37.412;2023-04-27T10:36:12;98470.03;;;19.51;36.35
69035;BME280;56091;55.756;37.412;2023-04-27T10:41:14;98475.84;;;19.71;36.46
69035;BME280;56091;55.756;37.412;2023-04-27T10:46:15;98493.69;;;19.68;38.14
69035;BME280;56091;55.756;37.412;2023-04-27T10:51:18;98486.84;;;19.62;38.37
69035;BME280;56091;55.756;37.412;2023-04-27T10:56:19;98478.81;;;19.99;35.73
69035;BME280;56091;55.756;37.412;2023-04-27T11:01:24;98481.16;;;20.09;34.87
69035;BME280;56091;55.756;37.412;2023-04-27T11:06:25;98477.19;;;20.19;34.35
69035;BME280;56091;55.756;37.412;2023-04-27T11:11:27;98468.75;;;20.24;35.37
69035;BME280;56091;55.756;37.412;2023-04-27T11:16:29;98477.38;;;20.47;36.00
69035;BME280;56091;55.756;37.412;2023-04-27T11:21:32;98481.34;;;20.04;37.01
69035;BME280;56091;55.756;37.412;2023-04-27T11:26:33;98480.84;;;19.90;37.69
69035;BME280;56091;55.756;37.412;2023-04-27T11:31:44;98479.28;;;20.01;39.52
69035;BME280;56091;55.756;37.412;2023-04-27T11:37:02;98485.31;;;19.95;39.24
69035;BME280;56091;55.756;37.412;2023-04-27T11:42:15;98483.50;;;19.99;38.63
69035;BME280;56091;55.756;37.412;2023-04-27T11:47:17;98476.66;;;20.51;35.67
69035;BME280;56091;55.756;37.412;2023-04-27T11:52:27;98477.53;;;20.88;35.02
69035;BME280;56091;55.756;37.412;2023-04-27T11:57:30;98475.09;;;21.48;34.32
69035;BME280;56091;55.756;37.412;2023-04-27T12:02:31;98473.81;;;21.58;33.38
69035;BME280;56091;55.756;37.412;2023-04-27T12:07:32;98473.84;;;21.86;33.45
69035;BME280;56091;55.756;37.412;2023-04-27T12:12:34;98458.28;;;21.37;33.73
69035;BME280;56091;55.756;37.412;2023-04-27T12:17:36;98468.34;;;21.45;34.15
69035;BME280;56091;55.756;37.412;2023-04-27T12:22:37;98460.50;;;21.07;34.79
69035;BME280;56091;55.756;37.412;2023-04-27T12:27:38;98476.91;;;20.58;35.80
69035;BME280;56091;55.756;37.412;2023-04-27T12:32:39;98465.09;;;20.66;36.37
69035;BME280;56091;55.756;37.412;2023-04-27T12:37:40;98449.78;;;20.90;36.22
69035;BME280;56091;55.756;37.412;2023-04-27T12:42:42;98445.44;;;21.01;34.49
69035;BME280;56091;55.756;37.412;2023-04-27T12:47:42;98451.81;;;21.17;34.04
69035;BME280;56091;55.756;37.412;2023-04-27T12:52:43;98442.72;;;20.76;33.46
69035;BME280;56091;55.756;37.412;2023-04-27T12:57:44;98447.72;;;20.99;33.55
69035;BME280;56091;55.756;37.412;2023-04-27T13:02:45;98439.94;;;20.89;33.79
69035;BME280;56091;55.756;37.412;2023-04-27T13:07:46;98439.84;;;21.10;33.97
69035;BME280;56091;55.756;37.412;2023-04-27T13:12:48;98390.84;;;21.08;33.56
69035;BME280;56091;55.756;37.412;2023-04-27T13:17:49;98445.38;;;21.50;33.53
69035;BME280;56091;55.756;37.412;2023-04-27T13:22:52;98446.25;;;20.89;33.98
69035;BME280;56091;55.756;37.412;2023-04-27T13:27:53;98442.19;;;21.48;33.49
69035;BME280;56091;55.756;37.412;2023-04-27T13:32:54;98441.75;;;21.46;33.18
69035;BME280;56091;55.756;37.412;2023-04-27T13:37:56;98444.88;;;21.60;32.93
69035;BME280;56091;55.756;37.412;2023-04-27T13:42:57;98449.25;;;21.49;32.94
69035;BME280;56091;55.756;37.412;2023-04-27T13:47:58;98434.13;;;23.43;30.84
69035;BME280;56091;55.756;37.412;2023-04-27T13:53:00;98456.47;;;27.33;24.62
69035;BME280;56091;55.756;37.412;2023-04-27T13:58:01;98442.31;;;27.52;23.60
69035;BME280;56091;55.756;37.412;2023-04-27T14:03:02;98455.53;;;25.27;26.73
69035;BME280;56091;55.756;37.412;2023-04-27T14:08:04;98455.59;;;29.56;21.44
69035;BME280;56091;55.756;37.412;2023-04-27T14:13:05;98448.56;;;31.58;19.25
69035;BME280;56091;55.756;37.412;2023-04-27T14:18:07;98454.72;;;32.07;18.99
69035;BME280;56091;55.756;37.412;2023-04-27T14:23:09;98443.28;;;31.98;18.78
69035;BME280;56091;55.756;37.412;2023-04-27T14:28:10;98450.44;;;28.00;22.75
69035;BME280;56091;55.756;37.412;2023-04-27T14:33:11;98449.28;;;25.30;26.77
69035;BME280;56091;55.756;37.412;2023-04-27T14:38:14;98458.66;;;24.72;27.89
69035;BME280;56091;55.756;37.412;2023-04-27T14:43:14;98458.66;;;24.06;27.96
69035;BME280;56091;55.756;37.412;2023-04-27T14:48:17;98452.31;;;25.51;25.71
69035;BME280;56091;55.756;37.412;2023-04-27T14:53:18;98437.69;;;25.81;25.91
69035;BME280;56091;55.756;37.412;2023-04-27T14:58:19;98441.03;;;28.84;22.10
69035;BME280;56091;55.756;37.412;2023-04-27T15:03:19;98423.91;;;30.21;20.49
69035;BME280;56091;55.756;37.412;2023-04-27T15:08:20;98447.13;;;31.42;18.65
69035;BME280;56091;55.756;37.412;2023-04-27T15:13:22;98445.28;;;31.66;18.85
69035;BME280;56091;55.756;37.412;2023-04-27T15:18:24;98431.97;;;31.47;18.43
69035;BME280;56091;55.756;37.412;2023-04-27T15:23:26;98452.56;;;31.15;18.90
69035;BME280;56091;55.756;37.412;2023-04-27T15:28:27;98437.94;;;29.95;19.94
69035;BME280;56091;55.756;37.412;2023-04-27T15:33:28;98453.34;;;27.41;22.93
69035;BME280;56091;55.756;37.412;2023-04-27T15:38:32;98453.59;;;25.58;25.52
69035;BME280;56091;55.756;37.412;2023-04-27T15:43:33;98465.16;;;24.17;27.79
69035;BME280;56091;55.756;37.412;2023-04-27T15:48:34;98464.47;;;22.95;29.76
69035;BME280;56091;55.756;37.412;2023-04-27T15:53:35;98466.72;;;22.13;31.50
69035;BME280;56091;55.756;37.412;2023-04-27T15:58:36;98469.88;;;21.99;32.16
69035;BME280;56091;55.756;37.412;2023-04-27T16:03:36;98467.81;;;21.68;32.66
69035;BME280;56091;55.756;37.412;2023-04-27T16:08:37;98465.28;;;21.35;33.45
69035;BME280;56091;55.756;37.412;2023-04-27T16:13:39;98457.56;;;20.88;33.98
69035;BME280;56091;55.756;37.412;2023-04-27T16:18:39;98471.91;;;20.60;34.84
69035;BME280;56091;55.756;37.412;2023-04-27T16:23:43;98479.03;;;20.27;35.56
69035;BME280;56091;55.756;37.412;2023-04-27T16:28:44;98476.31;;;19.94;36.79
69035;BME280;56091;55.756;37.412;2023-04-27T16:33:45;98474.28;;;19.61;36.99
69035;BME280;56091;55.756;37.412;2023-04-27T16:38:47;98482.47;;;19.40;37.46
69035;BME280;56091;55.756;37.412;2023-04-27T16:43:48;98478.03;;;19.06;38.41
69035;BME280;56091;55.756;37.412;2023-04-27T16:48:50;98490.81;;;18.93;38.95
69035;BME280;56091;55.756;37.412;2023-04-27T16:53:54;98497.47;;;18.75;39.30
69035;BME280;56091;55.756;37.412;2023-04-27T16:58:55;98503.31;;;18.56;39.90
69035;BME280;56091;55.756;37.412;2023-04-27T17:03:58;98478.66;;;18.17;40.62
69035;BME280;56091;55.756;37.412;2023-04-27T17:09:00;98511.41;;;18.26;41.16
69035;BME280;56091;55.756;37.412;2023-04-27T17:14:01;98489.47;;;17.96;41.64
69035;BME280;56091;55.756;37.412;2023-04-27T17:19:02;98504.06;;;17.91;41.85
69035;BME280;56091;55.756;37.412;2023-04-27T17:24:03;98485.59;;;17.71;42.29
69035;BME280;56091;55.756;37.412;2023-04-27T17:29:05;98509.66;;;17.69;43.07
69035;BME280;56091;55.756;37.412;2023-04-27T17:34:06;98510.31;;;17.57;43.04
69035;BME280;56091;55.756;37.412;2023-04-27T17:39:07;98509.19;;;17.49;44.21
69035;BME280;56091;55.756;37.412;2023-04-27T17:44:09;98507.72;;;17.34;43.70
69035;BME280;56091;55.756;37.412;2023-04-27T17:49:12;98510.41;;;17.26;43.55
69035;BME280;56091;55.756;37.412;2023-04-27T17:54:12;98510.56;;;17.21;44.01
69035;BME280;56091;55.756;37.412;2023-04-27T17:59:13;98516.16;;;17.15;43.99
69035;BME280;56091;55.756;37.412;2023-04-27T18:04:14;98505.41;;;17.10;44.64
69035;BME280;56091;55.756;37.412;2023-04-27T18:09:15;98512.59;;;17.06;44.53
69035;BME280;56091;55.756;37.412;2023-04-27T18:14:16;98505.41;;;17.02;44.36
69035;BME280;56091;55.756;37.412;2023-04-27T18:19:17;98509.06;;;16.97;44.53
69035;BME280;56091;55.756;37.412;2023-04-27T18:24:18;98504.06;;;16.90;44.96
69035;BME280;56091;55.756;37.412;2023-04-27T18:29:19;98502.09;;;16.82;45.12
69035;BME280;56091;55.756;37.412;2023-04-27T18:34:20;98500.31;;;16.77;45.18
69035;BME280;56091;55.756;37.412;2023-04-27T18:39:23;98503.50;;;16.79;46.59
69035;BME280;56091;55.756;37.412;2023-04-27T18:44:29;98486.69;;;16.77;45.72
69035;BME280;56091;55.756;37.412;2023-04-27T18:49:30;98495.56;;;16.92;46.64
69035;BME280;56091;55.756;37.412;2023-04-27T18:54:31;98493.66;;;16.92;45.42
69035;BME280;56091;55.756;37.412;2023-04-27T18:59:32;98502.94;;;16.91;45.65
69035;BME280;56091;55.756;37.412;2023-04-27T19:04:33;98501.28;;;16.82;45.56
69035;BME280;56091;55.756;37.412;2023-04-27T19:09:34;98493.88;;;16.73;46.12
69035;BME280;56091;55.756;37.412;2023-04-27T19:14:35;98442.47;;;16.32;46.23
69035;BME280;56091;55.756;37.412;2023-04-27T19:19:36;98486.44;;;16.56;46.35
69035;BME280;56091;55.756;37.412;2023-04-27T19:24:37;98482.22;;;16.50;46.42
69035;BME280;56091;55.756;37.412;2023-04-27T19:29:57;98467.13;;;16.35;47.32
69035;BME280;56091;55.756;37.412;2023-04-27T19:34:59;98462.91;;;16.20;47.26
69035;BME280;56091;55.756;37.412;2023-04-27T19:40:00;98485.16;;;16.23;48.05
69035;BME280;56091;55.756;37.412;2023-04-27T19:45:05;98463.47;;;16.09;48.15
69035;BME280;56091;55.756;37.412;2023-04-27T19:50:06;98481.19;;;16.06;48.12
69035;BME280;56091;55.756;37.412;2023-04-27T19:55:08;98476.41;;;16.03;48.39
69035;BME280;56091;55.756;37.412;2023-04-27T20:00:09;98478.94;;;15.99;48.52
69035;BME280;56091;55.756;37.412;2023-04-27T20:05:15;98472.63;;;15.90;48.53
69035;BME280;56091;55.756;37.412;2023-04-27T20:10:18;98482.88;;;15.93;48.83
69035;BME280;56091;55.756;37.412;2023-04-27T20:15:19;98474.03;;;15.88;49.05
69035;BME280;56091;55.756;37.412;2023-04-27T20:20:20;98476.59;;;15.84;48.85
69035;BME280;56091;55.756;37.412;2023-04-27T20:25:21;98472.84;;;15.80;48.91
69035;BME280;56091;55.756;37.412;2023-04-27T20:30:22;98467.84;;;15.73;49.03
69035;BME280;56091;55.756;37.412;2023-04-27T20:35:23;98482.25;;;15.74;49.41
69035;BME280;56091;55.756;37.412;2023-04-27T20:40:24;98476.28;;;15.72;49.28
69035;BME280;56091;55.756;37.412;2023-04-27T20:45:26;98469.88;;;15.68;49.19
69035;BME280;56091;55.756;37.412;2023-04-27T20:50:27;98455.22;;;15.55;49.32
69035;BME280;56091;55.756;37.412;2023-04-27T20:55:28;98470.41;;;15.56;49.41
69035;BME280;56091;55.756;37.412;2023-04-27T21:00:30;98464.78;;;15.52;50.08
69035;BME280;56091;55.756;37.412;2023-04-27T21:05:31;98465.19;;;15.46;50.17
69035;BME280;56091;55.756;37.412;2023-04-27T21:10:35;98462.09;;;15.38;50.53
69035;BME280;56091;55.756;37.412;2023-04-27T21:15:37;98471.88;;;15.39;50.77
69035;BME280;56091;55.756;37.412;2023-04-27T21:20:38;98464.63;;;15.35;51.08
69035;BME280;56091;55.756;37.412;2023-04-27T21:25:42;98447.56;;;15.20;51.19
69035;BME280;56091;55.756;37.412;2023-04-27T21:30:44;98449.47;;;15.20;51.23
69035;BME280;56091;55.756;37.412;2023-04-27T21:35:45;98446.88;;;15.15;51.35
69035;BME280;56091;55.756;37.412;2023-04-27T21:40:45;98453.72;;;15.12;51.61
69035;BME280;56091;55.756;37.412;2023-04-27T21:45:47;98493.34;;;15.13;51.11
69035;BME280;56091;55.756;37.412;2023-04-27T21:50:47;98480.06;;;14.98;51.84
69035;BME280;56091;55.756;37.412;2023-04-27T21:55:48;98477.88;;;14.86;52.27
69035;BME280;56091;55.756;37.412;2023-04-27T22:00:50;98467.75;;;14.78;52.58
69035;BME280;56091;55.756;37.412;2023-04-27T22:05:51;98482.50;;;14.72;52.82
69035;BME280;56091;55.756;37.412;2023-04-27T22:10:52;98484.69;;;14.56;53.54
69035;BME280;56091;55.756;37.412;2023-04-27T22:15:53;98483.75;;;14.47;53.81
69035;BME280;56091;55.756;37.412;2023-04-27T22:20:54;98475.41;;;14.43;53.99
69035;BME280;56091;55.756;37.412;2023-04-27T22:25:55;98468.19;;;14.38;54.51
69035;BME280;56091;55.756;37.412;2023-04-27T22:30:56;98462.53;;;14.35;54.56
69035;BME280;56091;55.756;37.412;2023-04-27T22:36:04;98458.41;;;14.37;55.06
69035;BME280;56091;55.756;37.412;2023-04-27T22:41:06;98465.25;;;14.35;54.94
69035;BME280;56091;55.756;37.412;2023-04-27T22:46:07;98465.84;;;14.32;56.03
69035;BME280;56091;55.756;37.412;2023-04-27T22:51:13;98463.25;;;14.27;55.54
69035;BME280;56091;55.756;37.412;2023-04-27T22:56:15;98448.75;;;14.17;55.18
69035;BME280;56091;55.756;37.412;2023-04-27T23:01:15;98456.78;;;14.22;55.14
69035;BME280;56091;55.756;37.412;2023-04-27T23:06:22;98447.44;;;14.15;55.72
69035;BME280;56091;55.756;37.412;2023-04-27T23:11:22;98448.44;;;14.19;56.11
69035;BME280;56091;55.756;37.412;2023-04-27T23:16:26;98442.41;;;14.08;56.07
69035;BME280;56091;55.756;37.412;2023-04-27T23:21:29;98466.59;;;14.04;56.64
69035;BME280;56091;55.756;37.412;2023-04-27T23:26:30;98463.47;;;13.97;56.65
69035;BME280;56091;55.756;37.412;2023-04-27T23:31:31;98461.44;;;13.89;56.64
69035;BME280;56091;55.756;37.412;2023-04-27T23:36:32;98440.41;;;13.81;56.69
69035;BME280;56091;55.756;37.412;2023-04-27T23:41:32;98435.31;;;13.79;56.85
69035;BME280;56091;55.756;37.412;2023-04-27T23:46:33;98448.84;;;13.79;57.10
69035;BME280;56091;55.756;37.412;2023-04-27T23:51:37;98449.16;;;13.78;57.45
69035;BME280;56091;55.756;37.412;2023-04-27T23:56:38;98443.00;;;13.72;57.32
